Flight Track Log - Related Links

Times and Time Zones

All times are in EDT time to prevent confusion due to time zone crossing. See the DAL1092 flight status page for this flight to view local times or setup timezone preferences in your user account.

Time Position Orientation Groundspeed Altitude Reporting Facility
EDT Latitude Longitude Course Direction KTS MPH feet Rate Location/Type
Fri 09:53:28 AM 33.6306 -84.4778 53° Northeast 467 537 2,700  Level Atlanta Center
Fri 09:54:28 AM 33.6053 -84.5450 246° West 327 376 4,100 1,850 Climbing Atlanta Center
Fri 09:55:28 AM 33.5447 -84.5847 209° Southwest 276 318 6,400 2,600 Climbing Atlanta Center
Fri 09:56:00 AM 33.8176 -83.8653 54° Northeast  Level FlightAware Approximate
Fri 09:56:28 AM 33.4717 -84.5742 173° South 279 321 9,300  Level Atlanta Center
Fri 09:57:00 AM 33.8946 -83.7461 48° Northeast  Level FlightAware Approximate
Fri 09:57:28 AM 33.4533 -84.4894 105° East 318 366 11,700  Level Atlanta Center
Fri 09:58:00 AM 33.9723 -83.6275 53° Northeast  Level FlightAware Approximate
Fri 09:58:28 AM 33.4536 -84.3750 90° East 334 384 12,800  Level Atlanta Center
Fri 09:59:28 AM 33.4936 -84.2556 68° East 382 440 14,100 1,550 Climbing Atlanta Center
Fri 10:00:28 AM 33.5939 -84.1858 30° Northeast 372 428 15,900 1,800 Climbing Atlanta Center
Fri 10:01:28 AM 33.7025 -84.1161 28° Northeast 415 478 17,700 1,550 Climbing Atlanta Center
Fri 10:02:28 AM 33.7797 -84.0039 50° Northeast 425 489 19,000 1,400 Climbing Atlanta Center
Fri 10:03:28 AM 33.8442 -83.8761 59° Northeast 440 506 20,500 1,500 Climbing Atlanta Center
Fri 10:04:28 AM 33.9128 -83.7458 58° Northeast 452 520 22,000 1,250 Climbing Atlanta Center
Fri 10:05:28 AM 33.9897 -83.6178 54° Northeast 463 533 23,000 1,100 Climbing Atlanta Center
Fri 10:06:28 AM 34.0686 -83.4922 53° Northeast 468 539 24,200 1,050 Climbing Atlanta Center
Fri 10:07:28 AM 34.1575 -83.3533 52° Northeast 479 551 25,100 950 Climbing Atlanta Center
Fri 10:08:28 AM 34.2403 -83.2197 53° Northeast 485 558 26,100 850 Climbing Atlanta Center
Fri 10:09:28 AM 34.3042 -83.1158 53° Northeast 485 558 26,800 800 Climbing Atlanta Center
Fri 10:10:28 AM 34.4053 -82.9561 52° Northeast 485 558 27,700 950 Climbing Atlanta Center
Fri 10:11:28 AM 34.4853 -82.8242 54° Northeast 485 558 28,700 833 Climbing Atlanta Center
Fri 10:13:28 AM 34.6433 -82.5744 52° Northeast 485 558 30,200 800 Climbing Atlanta Center
Fri 10:14:28 AM 34.7528 -82.4814 35° Northeast 471 542 31,100 850 Climbing Atlanta Center
Fri 10:15:28 AM 34.8706 -82.3956 31° Northeast 476 548 31,900 900 Climbing Atlanta Center
Fri 10:16:28 AM 34.9864 -82.3097 31° Northeast 481 554 32,900 900 Climbing Atlanta Center
Fri 10:17:28 AM 35.1144 -82.2183 30° Northeast 481 554 33,700 900 Climbing Atlanta Center
Fri 10:18:28 AM 35.2278 -82.1369 30° Northeast 476 548 34,700 650 Climbing Atlanta Center
Fri 10:19:28 AM 35.3414 -82.0528 31° Northeast 476 548 35,000 150 Climbing Atlanta Center
Fri 10:20:28 AM 35.4567 -81.9683 31° Northeast 476 548 35,000  Level Atlanta Center
Fri 10:21:28 AM 35.5575 -81.8919 32° Northeast 476 548 35,000  Level Atlanta Center
Fri 10:22:28 AM 35.6728 -81.8044 32° Northeast 476 548 35,000  Level Atlanta Center
Fri 10:23:28 AM 35.7881 -81.7169 32° Northeast 476 548 35,000  Level Atlanta Center
Fri 10:24:28 AM 35.9114 -81.6236 31° Northeast 476 548 35,000  Level Atlanta Center
Fri 10:25:28 AM 36.0244 -81.5381 31° Northeast 476 548 35,000  Level Atlanta Center
Fri 10:26:28 AM 36.1375 -81.4522 32° Northeast 476 548 35,000  Level Atlanta Center
Fri 10:27:28 AM 36.2522 -81.3636 32° Northeast 476 548 35,000  Level Atlanta Center
Fri 10:28:28 AM 36.3631 -81.2775 32° Northeast 476 548 35,000  Level Atlanta Center
Fri 10:29:28 AM 36.4756 -81.1883 33° Northeast 476 548 35,000  Level Atlanta Center
Fri 10:30:28 AM 36.5883 -81.1042 31° Northeast 469 540 35,000  Level Atlanta Center
Fri 10:31:28 AM 36.7028 -81.0119 33° Northeast 469 540 35,000  Level Atlanta Center
Fri 10:32:28 AM 36.7950 -80.9411 32° Northeast 454 522 35,000  Level Atlanta Center
Fri 10:34:33 AM 37.0400 -80.7544 31° Northeast 484 557 35,000  Level Washington Center
Fri 10:35:33 AM 37.1636 -80.6897 23° Northeast 478 550 35,000  Level Washington Center
Fri 10:36:34 AM 37.2758 -80.6528 15° North 464 534 35,000  Level Washington Center
Fri 10:37:35 AM 37.4028 -80.6117 14° North 464 534 35,000  Level Washington Center
Fri 10:38:32 AM 37.5294 -80.5728 14° North 464 534 35,000  Level Washington Center
Fri 10:39:34 AM 37.6564 -80.5314 14° North 464 534 35,000  Level Washington Center
Fri 10:40:34 AM 37.7983 -80.4803 16° North 464 534 35,000  Level Washington Center
Fri 10:41:35 AM 37.9253 -80.4383 15° North 464 534 35,000  Level Washington Center
Fri 10:42:33 AM 38.0519 -80.3964 15° North 464 534 35,000  Level Washington Center
Fri 10:43:33 AM 38.1792 -80.3492 16° North 464 534 35,000  Level Washington Center
Fri 10:44:34 AM 38.3078 -80.3097 14° North 464 534 35,000  Level Washington Center
Fri 10:45:34 AM 38.4242 -80.2669 16° North 464 534 35,000  Level Washington Center
Fri 10:46:33 AM 38.5511 -80.2217 16° North 464 534 35,000  Level Washington Center
Fri 10:48:41 AM 38.8261 -80.1169 17° North 468 539 35,000  Level Cleveland Center
Fri 10:49:41 AM 38.9531 -80.0733 15° North 468 539 35,000  Level Cleveland Center
Fri 10:50:41 AM 39.0842 -80.0294 15° North 474 545 35,000  Level Cleveland Center
Fri 10:51:41 AM 39.2067 -79.9617 23° Northeast 474 545 35,000  Level Cleveland Center
Fri 10:52:41 AM 39.3314 -79.8828 26° Northeast 480 552 35,000  Level Cleveland Center
Fri 10:53:41 AM 39.4494 -79.7875 32° Northeast 485 558 35,000  Level Cleveland Center
Fri 10:54:41 AM 39.5719 -79.7053 27° Northeast 490 564 35,000  Level Cleveland Center
Fri 10:55:41 AM 39.6942 -79.6281 26° Northeast 490 564 35,000  Level Cleveland Center
Fri 10:56:41 AM 39.8186 -79.5453 27° Northeast 490 564 35,000  Level Cleveland Center
Fri 10:57:41 AM 39.9408 -79.4675 26° Northeast 490 564 35,000  Level Cleveland Center
Fri 10:58:41 AM 40.0775 -79.3758 27° Northeast 485 558 35,000  Level Cleveland Center
Fri 10:59:41 AM 40.1975 -79.2975 26° Northeast 494 568 35,000  Level Cleveland Center
Fri 11:00:41 AM 40.3217 -79.2133 27° Northeast 488 562 35,000  Level Cleveland Center
Fri 11:01:41 AM 40.4436 -79.1317 27° Northeast 488 562 35,000  Level Cleveland Center
Fri 11:02:41 AM 40.5572 -79.0581 26° Northeast 493 567 35,000  Level Cleveland Center
Fri 11:03:41 AM 40.6956 -78.9619 28° Northeast 499 574 35,000 -300 Level Cleveland Center
Fri 11:04:41 AM 40.8031 -78.8933 26° Northeast 487 560 34,400 -500 Descending Cleveland Center
Fri 11:05:41 AM 40.9414 -78.7964 28° Northeast 492 566 34,000 -200 Descending Cleveland Center
Fri 11:06:41 AM 41.0692 -78.7103 27° Northeast 498 573 34,000  Level Cleveland Center
Fri 11:07:41 AM 41.1928 -78.6267 27° Northeast 498 573 34,000  Level Cleveland Center
Fri 11:08:41 AM 41.3164 -78.5428 27° Northeast 498 573 34,000  Level Cleveland Center
Fri 11:09:41 AM 41.4378 -78.4558 28° Northeast 498 573 34,000  Level Cleveland Center
Fri 11:10:41 AM 41.5614 -78.3714 27° Northeast 492 566 34,000 -350 Level Cleveland Center
Fri 11:11:41 AM 41.6847 -78.2836 28° Northeast 492 566 33,300 -595 Descending Cleveland Center
Fri 11:12:42 AM 41.8142 -78.1956 27° Northeast 492 566 32,800 -500 Descending Cleveland Center
Fri 11:13:41 AM 41.9253 -78.1217 26° Northeast 492 566 32,300 -605 Descending Cleveland Center
Fri 11:14:41 AM 42.0600 -78.0828 12° North 492 566 31,600 -850 Descending Cleveland Center
Fri 11:15:41 AM 42.1969 -78.0550 North 492 566 30,600 -1,000 Descending Cleveland Center
Fri 11:16:41 AM 42.3089 -77.9325 39° Northeast 492 566 29,600 -1,450 Descending Cleveland Center
Fri 11:17:41 AM 42.3967 -77.7686 54° Northeast 501 577 27,700 -2,300 Descending Cleveland Center
Fri 11:18:41 AM 42.4944 -77.5925 53° Northeast 512 589 25,000 -2,950 Descending Cleveland Center
Fri 11:19:41 AM 42.5839 -77.4247 54° Northeast 531 611 21,800 -3,150 Descending Cleveland Center
Fri 11:20:41 AM 42.6669 -77.2736 53° Northeast 531 611 18,700 -2,900 Descending Cleveland Center
Fri 11:21:41 AM 42.7422 -77.1339 54° Northeast 500 575 16,000 -2,250 Descending Cleveland Center
Fri 11:22:33 AM 42.8019 -77.0253 53° Northeast 393 452 14,500 -2,198 Descending Boston Center
Fri 11:23:52 AM 42.8667 -76.8686 61° Northeast 349 402 11,200 -1,511 Descending Boston Center
Fri 11:24:52 AM 42.9364 -76.7883 40° Northeast 312 359 11,000 -744 Descending Boston Center
Fri 11:25:53 AM 42.9939 -76.6986 49° Northeast 307 353 9,700 -1,645 Descending Boston Center
Fri 11:26:56 AM 43.0475 -76.6086 51° Northeast 306 352 7,600 -2,049 Descending Boston Center
Fri 11:27:56 AM 43.0903 -76.5206 56° Northeast 284 327 5,500 -1,678 Descending Boston Center
Fri 11:28:54 AM 43.0978 -76.4242 84° East 243 280 4,300 -1,082 Descending Boston Center
Fri 11:29:58 AM 43.1008 -76.3364 87° East 209 241 3,300 -1,016 Descending Boston Center
Fri 11:30:58 AM 43.1033 -76.2597 87° East 193 222 2,200 -942 Descending Boston Center
Fri 11:31:59 AM 43.1053 -76.2000 87° East 146 168 1,400 -787 Descending Boston Center

Login

Don't have an account? Register now (free) for customized features, flight alerts, and more!